createdAt,value
2023-01-22T00:00:17.869Z,2.08
2023-01-22T00:05:21.343Z,2.05
2023-01-22T00:10:23.522Z,2.01
2023-01-22T00:15:26.662Z,1.97
2023-01-22T00:20:30.672Z,1.90
2023-01-22T00:25:32.530Z,1.86
2023-01-22T00:30:34.355Z,1.82
2023-01-22T00:35:36.117Z,1.80
2023-01-22T00:40:37.841Z,1.78
2023-01-22T00:45:40.068Z,1.74
2023-01-22T00:50:42.092Z,1.73
2023-01-22T00:55:58.594Z,1.71
2023-01-22T01:01:03.738Z,1.70
2023-01-22T01:06:21.484Z,1.70
2023-01-22T01:11:25.500Z,1.74
2023-01-22T01:16:30.193Z,1.74
2023-01-22T01:21:34.408Z,1.77
2023-01-22T01:26:38.230Z,1.73
2023-01-22T01:31:40.195Z,1.69
2023-01-22T01:36:49.433Z,1.66
2023-01-22T01:41:51.811Z,1.59
2023-01-22T01:47:00.514Z,1.52
2023-01-22T01:52:10.250Z,1.45
2023-01-22T01:57:17.337Z,1.39
2023-01-22T02:02:20.642Z,1.37
2023-01-22T02:07:23.805Z,1.33
2023-01-22T02:12:25.864Z,1.37
2023-01-22T02:17:27.741Z,1.41
2023-01-22T02:22:32.552Z,1.41
2023-01-22T02:27:35.817Z,1.47
2023-01-22T02:32:40.111Z,1.52
2023-01-22T02:37:42.003Z,1.59
2023-01-22T02:42:43.877Z,1.65
2023-01-22T02:47:46.773Z,1.70
2023-01-22T02:52:49.498Z,1.74
2023-01-22T02:57:51.286Z,1.80
2023-01-22T03:02:53.057Z,1.87
2023-01-22T03:07:55.002Z,1.92
2023-01-22T03:13:15.507Z,1.95
2023-01-22T03:18:36.866Z,1.97
2023-01-22T03:23:39.295Z,2.02
2023-01-22T03:28:41.474Z,2.06
2023-01-22T03:33:43.897Z,2.09
2023-01-22T03:38:46.999Z,2.14
2023-01-22T03:43:53.895Z,2.23
2023-01-22T03:49:01.209Z,2.28
2023-01-22T03:54:03.889Z,2.34
2023-01-22T03:59:08.386Z,2.39
2023-01-22T04:04:10.340Z,2.44
2023-01-22T04:09:13.529Z,2.48
2023-01-22T04:14:21.700Z,2.50
2023-01-22T04:19:36.300Z,2.50
2023-01-22T04:24:39.716Z,2.54
2023-01-22T04:29:41.870Z,2.56
2023-01-22T04:34:44.419Z,2.58
2023-01-22T04:40:05.960Z,2.59
2023-01-22T04:45:11.536Z,2.61
2023-01-22T04:50:26.263Z,2.66
2023-01-22T04:55:29.340Z,2.67
2023-01-22T05:00:38.566Z,2.70
2023-01-22T05:05:40.880Z,2.70
2023-01-22T05:10:42.797Z,2.72
2023-01-22T05:15:49.637Z,2.72
2023-01-22T05:20:52.503Z,2.73
2023-01-22T05:25:56.421Z,2.73
2023-01-22T05:31:15.672Z,2.74
2023-01-22T05:36:24.890Z,2.76
2023-01-22T05:41:29.044Z,2.77
2023-01-22T05:46:33.179Z,2.78
2023-01-22T05:51:53.529Z,2.79
2023-01-22T05:56:55.433Z,2.78
2023-01-22T06:02:00.193Z,2.80
2023-01-22T06:07:02.263Z,2.80
2023-01-22T06:12:04.891Z,2.82
2023-01-22T06:17:07.845Z,2.85
2023-01-22T06:22:13.036Z,2.89
2023-01-22T06:27:22.684Z,2.89
2023-01-22T06:32:29.362Z,2.89
2023-01-22T06:37:33.711Z,2.87
2023-01-22T06:42:37.614Z,2.88
2023-01-22T06:47:45.147Z,2.89
2023-01-22T06:52:49.045Z,2.84
2023-01-22T06:57:51.026Z,2.79
2023-01-22T07:02:53.312Z,2.70
2023-01-22T07:07:55.347Z,2.66
2023-01-22T07:12:59.115Z,2.65
2023-01-22T07:18:00.899Z,2.63
2023-01-22T07:23:03.282Z,2.62
2023-01-22T07:28:06.224Z,2.63
2023-01-22T07:33:11.450Z,2.58
2023-01-22T07:38:13.258Z,2.54
2023-01-22T07:43:15.227Z,2.56
2023-01-22T07:48:16.912Z,2.60
2023-01-22T07:53:19.118Z,2.65
2023-01-22T07:58:21.195Z,2.70
2023-01-22T08:03:22.942Z,2.70
2023-01-22T08:08:25.190Z,2.72
2023-01-22T08:13:27.037Z,2.75
2023-01-22T08:18:29.094Z,2.79
2023-01-22T08:23:30.801Z,2.82
2023-01-22T08:28:32.936Z,2.93
2023-01-22T08:33:34.955Z,3.04
2023-01-22T08:38:36.710Z,3.13
2023-01-22T08:43:38.618Z,3.22
2023-01-22T08:48:42.515Z,3.26
2023-01-22T08:53:44.393Z,3.32
2023-01-22T08:58:49.986Z,3.33
2023-01-22T09:03:51.889Z,3.26
2023-01-22T09:08:55.363Z,3.28
2023-01-22T09:13:58.315Z,3.32
2023-01-22T09:19:00.267Z,3.38
2023-01-22T09:24:02.158Z,3.39
2023-01-22T09:29:05.958Z,3.43
2023-01-22T09:34:07.776Z,3.38
2023-01-22T09:39:10.066Z,3.39
2023-01-22T09:44:29.569Z,3.40
2023-01-22T09:49:38.540Z,3.42
2023-01-22T09:54:40.686Z,3.44
2023-01-22T09:59:49.739Z,3.50
2023-01-22T10:05:00.927Z,3.57
2023-01-22T10:10:23.492Z,3.64
2023-01-22T10:15:26.184Z,3.72
2023-01-22T10:20:28.050Z,3.73
2023-01-22T10:25:30.023Z,3.69
2023-01-22T10:30:32.031Z,3.69
2023-01-22T10:35:49.877Z,3.71
2023-01-22T10:40:59.875Z,3.72
2023-01-22T10:46:24.703Z,3.73
2023-01-22T10:51:36.950Z,3.72
2023-01-22T10:56:41.903Z,3.75
2023-01-22T11:01:43.993Z,3.78
2023-01-22T11:06:49.493Z,3.78
2023-01-22T11:12:00.704Z,3.80
2023-01-22T11:17:26.911Z,3.79
2023-01-22T11:22:37.692Z,3.69
2023-01-22T11:27:55.304Z,3.70
2023-01-22T11:33:09.283Z,3.72
2023-01-22T11:38:29.474Z,3.77
2023-01-22T11:43:40.814Z,3.80
2023-01-22T11:48:55.649Z,3.85
2023-01-22T11:54:06.638Z,3.82
2023-01-22T11:59:32.228Z,3.86
2023-01-22T12:05:07.408Z,3.90
2023-01-22T12:10:47.854Z,3.93
2023-01-22T12:15:55.628Z,3.86
2023-01-22T12:21:22.025Z,3.85
2023-01-22T12:26:31.886Z,3.92
2023-01-22T12:31:40.907Z,4.05
2023-01-22T12:36:45.114Z,4.10
2023-01-22T12:42:24.393Z,4.12
2023-01-22T12:47:44.956Z,4.17
2023-01-22T12:53:17.332Z,4.25
2023-01-22T12:58:23.986Z,4.30
2023-01-22T13:03:31.984Z,4.36
2023-01-22T13:08:41.008Z,4.38
2023-01-22T13:13:50.963Z,4.41
2023-01-22T13:18:55.943Z,4.43
2023-01-22T13:24:02.177Z,4.42
2023-01-22T13:29:26.137Z,4.42
2023-01-22T13:34:29.354Z,4.43
2023-01-22T13:39:33.893Z,4.46
2023-01-22T13:44:41.887Z,4.43
2023-01-22T13:49:43.686Z,4.39
2023-01-22T13:55:00.427Z,4.42
2023-01-22T14:00:03.736Z,4.41
2023-01-22T14:05:21.867Z,4.37
2023-01-22T14:10:25.239Z,4.33
2023-01-22T14:15:27.177Z,4.32
2023-01-22T14:20:28.960Z,4.35
2023-01-22T14:25:31.815Z,4.32
2023-01-22T14:30:34.304Z,4.25
2023-01-22T14:35:36.024Z,4.26
2023-01-22T14:40:38.212Z,4.33
2023-01-22T14:45:41.452Z,4.39
2023-01-22T14:50:43.467Z,4.45
2023-01-22T14:55:45.620Z,4.50
2023-01-22T15:00:47.386Z,4.54
2023-01-22T15:05:52.686Z,4.56
2023-01-22T15:10:55.285Z,4.57
2023-01-22T15:15:57.023Z,4.60
2023-01-22T15:20:59.491Z,4.62
2023-01-22T15:26:08.241Z,4.62
2023-01-22T15:31:10.038Z,4.62
2023-01-22T15:36:11.861Z,4.62
2023-01-22T15:41:19.605Z,4.62
2023-01-22T15:46:23.870Z,4.61
2023-01-22T15:51:26.184Z,4.60
2023-01-22T15:56:30.407Z,4.56
2023-01-22T16:01:32.469Z,4.53
2023-01-22T16:06:35.127Z,4.52
2023-01-22T16:11:36.898Z,4.50
2023-01-22T16:16:39.063Z,4.49
2023-01-22T16:21:40.947Z,4.48
2023-01-22T16:26:42.808Z,4.46
2023-01-22T16:31:44.681Z,4.45
2023-01-22T16:36:46.811Z,4.43
2023-01-22T16:41:50.101Z,4.42
2023-01-22T16:46:57.217Z,4.40
2023-01-22T16:52:20.723Z,4.40
2023-01-22T16:57:24.231Z,4.37
2023-01-22T17:02:28.125Z,4.37
2023-01-22T17:07:34.002Z,4.36
2023-01-22T17:12:36.185Z,4.36
2023-01-22T17:17:39.764Z,4.35
2023-01-22T17:22:41.693Z,4.34
2023-01-22T17:27:43.502Z,4.30
2023-01-22T17:32:46.982Z,4.30
2023-01-22T17:37:49.393Z,4.27
2023-01-22T17:42:51.773Z,4.25
2023-01-22T17:47:53.619Z,4.25
2023-01-22T17:52:55.888Z,4.24
2023-01-22T17:57:59.494Z,4.23
2023-01-22T18:03:01.418Z,4.22
2023-01-22T18:08:03.528Z,4.22
2023-01-22T18:13:05.353Z,4.22
2023-01-22T18:18:07.140Z,4.22
2023-01-22T18:23:14.446Z,4.22
2023-01-22T18:28:22.441Z,4.21
2023-01-22T18:33:28.027Z,4.18
2023-01-22T18:38:31.207Z,4.17
2023-01-22T18:43:33.542Z,4.16
2023-01-22T18:48:35.823Z,4.13
2023-01-22T18:53:39.576Z,4.11
2023-01-22T18:58:44.914Z,4.12
2023-01-22T19:03:52.269Z,4.13
2023-01-22T19:08:58.904Z,4.13
2023-01-22T19:14:03.236Z,4.12
2023-01-22T19:19:11.382Z,4.10
2023-01-22T19:24:15.427Z,4.07
2023-01-22T19:29:18.939Z,4.03
2023-01-22T19:34:26.821Z,3.99
2023-01-22T19:39:29.284Z,3.96
2023-01-22T19:44:33.157Z,3.85
2023-01-22T19:49:35.572Z,3.79
2023-01-22T19:54:40.734Z,3.77
2023-01-22T19:59:42.953Z,3.72
2023-01-22T20:04:48.107Z,3.69
2023-01-22T20:09:50.126Z,3.71
2023-01-22T20:14:52.175Z,3.71
2023-01-22T20:19:54.327Z,3.69
2023-01-22T20:24:56.228Z,3.73
2023-01-22T20:29:58.663Z,3.79
2023-01-22T20:35:00.842Z,3.85
2023-01-22T20:40:04.746Z,3.90
2023-01-22T20:45:07.270Z,3.94
2023-01-22T20:50:09.891Z,3.98
2023-01-22T20:55:15.588Z,4.00
2023-01-22T21:00:18.323Z,4.03
2023-01-22T21:05:20.703Z,4.05
2023-01-22T21:10:22.776Z,4.07
2023-01-22T21:15:25.572Z,4.08
2023-01-22T21:20:27.531Z,4.09
2023-01-22T21:25:29.526Z,4.12
2023-01-22T21:30:31.654Z,4.15
2023-01-22T21:35:33.600Z,4.16
2023-01-22T21:40:35.705Z,4.13
2023-01-22T21:46:01.218Z,4.09
2023-01-22T21:51:03.780Z,4.06
2023-01-22T21:56:06.463Z,4.07
2023-01-22T22:01:09.121Z,4.09
2023-01-22T22:06:13.516Z,4.11
2023-01-22T22:11:15.671Z,4.15
2023-01-22T22:16:18.032Z,4.17
2023-01-22T22:21:20.126Z,4.19
2023-01-22T22:26:24.012Z,4.23
2023-01-22T22:31:26.253Z,4.24
2023-01-22T22:36:30.376Z,4.23
2023-01-22T22:41:33.983Z,4.25
2023-01-22T22:46:38.515Z,4.26
2023-01-22T22:51:43.464Z,4.26
2023-01-22T22:56:47.215Z,4.26
2023-01-22T23:01:49.495Z,4.28
2023-01-22T23:06:52.157Z,4.29
2023-01-22T23:11:56.296Z,4.30
2023-01-22T23:16:58.208Z,4.28
2023-01-22T23:22:01.694Z,4.21
2023-01-22T23:27:03.893Z,4.16
2023-01-22T23:32:06.083Z,4.15
2023-01-22T23:37:08.170Z,4.16
2023-01-22T23:42:10.574Z,4.18
2023-01-22T23:47:12.635Z,4.19
2023-01-22T23:52:14.794Z,4.20
2023-01-22T23:57:17.062Z,4.21
